Time;durP1;ratioP1;P1;durP2;ratioP2;P2;SDS_P1;SDS_P2;PMS_P1;PMS_P2;Temp;Humidity;BMP_temperature;BMP_pressure;BME280_temperature;BME280_humidity;BME280_pressure;Samples;Min_cycle;Max_cycle;Signal;HPM_P1;HPM_P2
2021/06/03 00:02:10;;;;;;;6.07;4.07;;;17.00;65.80;;;;;;3552935;40;20508;-69
2021/06/03 00:04:35;;;;;;;7.65;4.30;;;17.10;65.80;;;;;;3551743;40;20490;-69
2021/06/03 00:07:01;;;;;;;5.13;3.88;;;17.10;66.20;;;;;;3550124;40;20026;-69
2021/06/03 00:09:27;;;;;;;5.93;4.10;;;17.10;65.90;;;;;;3548364;40;20030;-68
2021/06/03 00:11:53;;;;;;;5.50;4.40;;;17.10;66.20;;;;;;3546340;40;20026;-69
2021/06/03 00:14:19;;;;;;;5.50;3.65;;;17.10;66.30;;;;;;3553290;40;20754;-69
2021/06/03 00:16:46;;;;;;;8.00;4.55;;;17.20;65.90;;;;;;3554781;40;20775;-69
2021/06/03 00:19:12;;;;;;;4.50;4.00;;;17.20;66.00;;;;;;3560695;40;20065;-69
2021/06/03 00:21:41;;;;;;;6.10;4.25;;;17.20;66.10;;;;;;3559141;40;20030;-68
2021/06/03 00:24:07;;;;;;;4.88;4.38;;;17.20;65.30;;;;;;3550403;40;20045;-69
2021/06/03 00:26:34;;;;;;;4.78;3.92;;;17.20;65.40;;;;;;3549884;40;20033;-69
2021/06/03 00:29:01;;;;;;;8.68;4.38;;;17.20;65.20;;;;;;3556019;40;20050;-72
2021/06/03 00:31:26;;;;;;;5.65;4.30;;;17.20;64.90;;;;;;3549605;40;20149;-72
2021/06/03 00:33:52;;;;;;;6.70;4.57;;;17.20;64.90;;;;;;3551201;40;20049;-69
2021/06/03 00:36:18;;;;;;;4.90;3.88;;;17.30;64.80;;;;;;3559652;40;20025;-69
2021/06/03 00:38:44;;;;;;;5.95;4.20;;;17.20;65.40;;;;;;3554363;40;20079;-69
2021/06/03 00:41:10;;;;;;;6.18;4.28;;;17.20;65.20;;;;;;3554722;40;20763;-69
2021/06/03 00:43:37;;;;;;;6.32;4.47;;;17.20;65.10;;;;;;3557003;40;20139;-69
2021/06/03 00:46:04;;;;;;;5.10;3.90;;;17.20;65.20;;;;;;3557837;40;20040;-70
2021/06/03 00:48:31;;;;;;;5.13;4.10;;;17.10;64.70;;;;;;3558784;40;20052;-69
2021/06/03 00:50:59;;;;;;;7.68;4.35;;;17.10;64.90;;;;;;3557334;40;20037;-69
2021/06/03 00:53:27;;;;;;;5.82;4.28;;;17.10;65.20;;;;;;3563538;40;20127;-69
2021/06/03 00:55:56;;;;;;;4.80;4.22;;;17.10;65.20;;;;;;3561494;40;20045;-69
2021/06/03 00:58:24;;;;;;;5.45;3.92;;;17.10;64.80;;;;;;3553600;40;20598;-69
2021/06/03 01:00:52;;;;;;;7.63;4.28;;;17.00;65.20;;;;;;3558002;40;20042;-69
2021/06/03 01:03:19;;;;;;;4.95;4.07;;;17.00;65.30;;;;;;3549617;40;20017;-69
2021/06/03 01:06:00;;;;;;;5.25;4.68;;;17.00;64.80;;;;;;3550562;40;20026;-69
2021/06/03 01:08:36;;;;;;;7.88;4.43;;;17.00;64.60;;;;;;3550092;40;20073;-69
2021/06/03 01:11:27;;;;;;;7.80;4.68;;;17.00;64.80;;;;;;3549515;40;20038;-70
2021/06/03 01:14:24;;;;;;;5.03;4.20;;;17.00;64.70;;;;;;3562124;40;20037;-69
2021/06/03 01:16:55;;;;;;;6.30;4.43;;;16.90;64.60;;;;;;3553061;40;20060;-70
2021/06/03 01:19:30;;;;;;;6.30;4.45;;;16.90;64.40;;;;;;3552358;40;20060;-70
2021/06/03 01:22:02;;;;;;;5.85;4.50;;;16.90;64.70;;;;;;3557856;40;20070;-70
2021/06/03 01:24:33;;;;;;;5.18;4.43;;;16.90;64.90;;;;;;3550155;40;20194;-70
2021/06/03 01:27:09;;;;;;;5.22;4.15;;;16.90;64.90;;;;;;3558465;40;20143;-69
2021/06/03 01:30:00;;;;;;;4.90;4.10;;;16.90;64.70;;;;;;3553866;40;20060;-71
2021/06/03 01:32:28;;;;;;;5.43;4.07;;;16.90;64.90;;;;;;3554332;40;20041;-72
2021/06/03 01:34:56;;;;;;;5.65;4.22;;;16.80;65.00;;;;;;3552472;40;20451;-72
2021/06/03 01:37:23;;;;;;;4.65;4.15;;;16.80;64.80;;;;;;3558952;40;20030;-71
2021/06/03 01:39:49;;;;;;;6.15;4.63;;;16.80;64.50;;;;;;3557608;40;20037;-71
2021/06/03 01:42:16;;;;;;;6.63;4.43;;;16.80;64.60;;;;;;3557361;40;20037;-71
2021/06/03 01:44:43;;;;;;;5.78;4.28;;;16.70;64.60;;;;;;3558134;40;20127;-71
2021/06/03 01:47:10;;;;;;;9.75;4.78;;;16.70;65.00;;;;;;3551867;40;20050;-72
2021/06/03 01:49:37;;;;;;;5.55;4.00;;;16.60;63.90;;;;;;3560018;40;20046;-72
2021/06/03 01:52:05;;;;;;;5.90;4.15;;;16.60;64.50;;;;;;3554071;40;20030;-72
2021/06/03 01:54:33;;;;;;;4.72;3.90;;;16.60;64.40;;;;;;3553865;40;20409;-71
2021/06/03 01:57:03;;;;;;;5.22;4.18;;;16.60;64.10;;;;;;3559602;40;20033;-72
2021/06/03 01:59:34;;;;;;;6.90;4.50;;;16.60;64.20;;;;;;3566007;40;20123;-71
2021/06/03 02:01:59;;;;;;;6.22;4.00;;;16.60;64.00;;;;;;3557997;40;20085;-72
2021/06/03 02:04:25;;;;;;;6.00;4.45;;;16.60;64.10;;;;;;3550937;40;20026;-72
2021/06/03 02:06:53;;;;;;;5.55;4.20;;;16.60;64.40;;;;;;3552696;40;20056;-72
2021/06/03 02:09:22;;;;;;;6.32;4.63;;;16.60;64.00;;;;;;3551176;40;20038;-72
2021/06/03 02:11:50;;;;;;;5.57;4.00;;;16.60;64.30;;;;;;3552253;40;20092;-72
2021/06/03 02:14:24;;;;;;;6.47;4.38;;;16.50;64.60;;;;;;3551086;40;20070;-71
2021/06/03 02:17:16;;;;;;;4.88;4.35;;;16.50;64.40;;;;;;3562422;40;20052;-72
2021/06/03 02:20:04;;;;;;;7.03;4.25;;;16.50;65.00;;;;;;3561320;40;20041;-72
2021/06/03 02:22:33;;;;;;;7.87;4.23;;;16.50;65.20;;;;;;3556271;40;20046;-72
2021/06/03 02:25:00;;;;;;;4.90;4.40;;;16.40;64.70;;;;;;3558431;40;20093;-72
2021/06/03 02:27:27;;;;;;;5.50;4.45;;;16.40;64.70;;;;;;3542662;40;20050;-72
2021/06/03 02:29:54;;;;;;;5.40;4.90;;;16.40;65.00;;;;;;3553698;40;20033;-71
2021/06/03 02:32:32;;;;;;;5.05;4.50;;;16.30;64.60;;;;;;3556243;40;20037;-72
2021/06/03 02:35:00;;;;;;;6.68;4.45;;;16.30;64.60;;;;;;3551077;40;20143;-72
2021/06/03 02:37:27;;;;;;;5.00;4.28;;;16.30;64.50;;;;;;3557976;40;20036;-72
2021/06/03 02:39:59;;;;;;;6.88;4.40;;;16.30;64.20;;;;;;3557086;40;20130;-72
2021/06/03 02:42:26;;;;;;;7.95;4.60;;;16.30;64.20;;;;;;3556838;40;20515;-71
2021/06/03 02:44:53;;;;;;;5.18;3.92;;;16.20;64.20;;;;;;3562586;40;20461;-71
2021/06/03 02:47:20;;;;;;;6.93;4.35;;;16.20;64.00;;;;;;3561292;40;20394;-72
2021/06/03 02:49:47;;;;;;;8.52;4.35;;;16.20;64.00;;;;;;3552384;40;20439;-72
2021/06/03 02:52:13;;;;;;;4.38;3.92;;;16.20;64.20;;;;;;3552331;40;20046;-72
2021/06/03 02:54:44;;;;;;;4.85;4.00;;;16.20;64.30;;;;;;3550641;40;20045;-73
2021/06/03 02:57:11;;;;;;;7.18;4.38;;;16.20;64.10;;;;;;3550394;40;20628;-72
2021/06/03 02:59:37;;;;;;;4.85;4.10;;;16.20;64.10;;;;;;3558162;40;20293;-70
2021/06/03 03:02:04;;;;;;;7.07;4.95;;;16.20;64.00;;;;;;3552606;40;20045;-72
2021/06/03 03:04:32;;;;;;;5.55;4.00;;;16.10;63.80;;;;;;3559454;40;20045;-72
2021/06/03 03:06:59;;;;;;;6.15;4.72;;;16.10;63.80;;;;;;3560593;40;20025;-72
2021/06/03 03:09:26;;;;;;;5.32;3.83;;;16.10;63.60;;;;;;3559118;40;20163;-72
2021/06/03 03:11:52;;;;;;;6.22;4.85;;;16.20;63.80;;;;;;3556954;40;20483;-72
2021/06/03 03:14:19;;;;;;;4.72;3.95;;;16.10;63.50;;;;;;3565829;40;20127;-73
2021/06/03 03:16:45;;;;;;;5.57;4.25;;;16.10;63.40;;;;;;3551575;40;20034;-72
2021/06/03 03:19:11;;;;;;;6.28;4.28;;;16.10;63.30;;;;;;3550421;40;20701;-72
2021/06/03 03:21:37;;;;;;;6.38;4.57;;;16.10;63.10;;;;;;3554586;40;20132;-72
2021/06/03 03:24:04;;;;;;;8.57;3.90;;;16.10;63.30;;;;;;3553035;40;20042;-72
2021/06/03 03:26:30;;;;;;;8.80;4.45;;;16.10;62.80;;;;;;3551306;40;20049;-74
2021/06/03 03:28:56;;;;;;;5.32;4.30;;;16.20;62.70;;;;;;3555961;40;20053;-72
2021/06/03 03:31:24;;;;;;;4.85;4.10;;;16.20;62.90;;;;;;3565045;40;20026;-73
2021/06/03 03:33:51;;;;;;;4.55;3.97;;;16.20;62.70;;;;;;3559492;40;20122;-72
2021/06/03 03:36:18;;;;;;;6.63;4.10;;;16.20;62.30;;;;;;3553571;40;20474;-72
2021/06/03 03:38:48;;;;;;;7.28;4.55;;;16.20;62.90;;;;;;3562573;40;20052;-72
2021/06/03 03:41:14;;;;;;;5.85;4.43;;;16.20;62.30;;;;;;3555005;40;20042;-72
2021/06/03 03:43:40;;;;;;;5.32;4.00;;;16.20;62.40;;;;;;3553547;40;20057;-72
2021/06/03 03:46:06;;;;;;;5.60;3.72;;;16.20;62.50;;;;;;3550633;40;20041;-72
2021/06/03 03:48:34;;;;;;;6.63;4.13;;;16.20;62.70;;;;;;3557484;40;20046;-72
2021/06/03 03:51:02;;;;;;;6.07;3.90;;;16.20;62.50;;;;;;3547856;40;20078;-72
2021/06/03 03:53:36;;;;;;;6.07;4.18;;;16.30;62.60;;;;;;3550213;40;20061;-72
2021/06/03 03:56:02;;;;;;;6.65;4.65;;;16.30;62.20;;;;;;3560046;40;20107;-72
2021/06/03 03:58:36;;;;;;;5.10;4.30;;;16.30;61.80;;;;;;3554983;40;20126;-72
2021/06/03 04:01:03;;;;;;;5.15;4.07;;;16.30;61.80;;;;;;3553729;40;20038;-72
2021/06/03 04:03:31;;;;;;;7.60;4.53;;;16.30;62.00;;;;;;3562688;40;20762;-72
2021/06/03 04:06:00;;;;;;;6.03;4.43;;;16.30;62.00;;;;;;3558116;40;20122;-72
2021/06/03 04:08:27;;;;;;;5.40;4.22;;;16.40;61.60;;;;;;3564582;40;20036;-73
2021/06/03 04:10:53;;;;;;;5.20;3.70;;;16.40;62.40;;;;;;3554869;40;20082;-72
2021/06/03 04:13:22;;;;;;;5.22;4.25;;;16.40;62.60;;;;;;3558874;40;20140;-72
2021/06/03 04:15:51;;;;;;;7.43;4.47;;;16.40;62.80;;;;;;3558459;40;20058;-72
2021/06/03 04:18:19;;;;;;;6.72;4.10;;;16.50;61.90;;;;;;3553006;40;20033;-72
2021/06/03 04:20:47;;;;;;;6.63;4.10;;;16.40;62.00;;;;;;3551422;40;20038;-72
2021/06/03 04:23:15;;;;;;;5.93;4.10;;;16.50;62.50;;;;;;3559738;40;20078;-72
2021/06/03 04:25:41;;;;;;;6.18;4.22;;;16.50;62.50;;;;;;3552905;40;20086;-72
2021/06/03 04:28:07;;;;;;;7.80;4.20;;;16.60;62.60;;;;;;3550538;40;20648;-72
2021/06/03 04:30:34;;;;;;;5.38;3.90;;;16.60;62.40;;;;;;3550881;40;20101;-72
2021/06/03 04:33:00;;;;;;;4.95;4.03;;;16.60;62.20;;;;;;3557502;40;20704;-72
2021/06/03 04:35:26;;;;;;;8.55;3.53;;;16.60;62.70;;;;;;3554180;40;20097;-72
2021/06/03 04:37:53;;;;;;;7.03;4.20;;;16.70;63.00;;;;;;3561414;40;20484;-72
2021/06/03 04:40:21;;;;;;;6.28;4.05;;;16.70;63.40;;;;;;3553511;40;20050;-72
2021/06/03 04:42:48;;;;;;;4.82;3.75;;;16.70;63.80;;;;;;3557623;40;20034;-72
2021/06/03 04:45:15;;;;;;;9.70;3.85;;;16.70;63.10;;;;;;3553872;40;20029;-72
2021/06/03 04:47:42;;;;;;;4.65;4.03;;;16.70;63.30;;;;;;3563857;40;20517;-72
2021/06/03 04:50:08;;;;;;;7.07;3.90;;;16.80;62.40;;;;;;3552212;40;20137;-72
2021/06/03 04:52:35;;;;;;;5.35;4.13;;;16.80;61.80;;;;;;3553177;40;20123;-72
2021/06/03 04:55:08;;;;;;;5.18;3.72;;;16.80;61.60;;;;;;3553033;40;20034;-72
2021/06/03 04:57:35;;;;;;;5.65;4.25;;;16.80;61.20;;;;;;3553527;40;20022;-72
2021/06/03 05:00:04;;;;;;;6.15;4.25;;;16.80;62.10;;;;;;3552429;40;20025;-72
2021/06/03 05:02:30;;;;;;;4.78;3.97;;;16.90;61.90;;;;;;3551508;40;20037;-72
2021/06/03 05:04:55;;;;;;;8.43;4.28;;;17.00;61.40;;;;;;3553140;40;20537;-72
2021/06/03 05:07:21;;;;;;;6.15;4.30;;;17.00;60.50;;;;;;3558807;40;20705;-72
2021/06/03 05:09:47;;;;;;;7.18;4.35;;;17.10;61.20;;;;;;3557443;40;20021;-73
2021/06/03 05:12:13;;;;;;;5.63;4.32;;;17.20;61.50;;;;;;3562804;40;20407;-72
2021/06/03 05:14:39;;;;;;;5.13;4.00;;;17.30;61.00;;;;;;3555045;40;20069;-72
2021/06/03 05:17:05;;;;;;;6.80;3.90;;;17.30;60.00;;;;;;3555864;40;20029;-72
2021/06/03 05:19:31;;;;;;;6.30;4.28;;;17.50;59.50;;;;;;3557848;40;20030;-72
2021/06/03 05:21:57;;;;;;;7.15;3.70;;;17.80;58.40;;;;;;3553597;40;20049;-72
2021/06/03 05:24:23;;;;;;;5.25;3.95;;;18.20;57.60;;;;;;3548196;40;20034;-72
2021/06/03 05:26:49;;;;;;;5.28;3.72;;;18.60;57.40;;;;;;3551468;40;20054;-72
2021/06/03 05:29:14;;;;;;;4.38;3.40;;;18.70;56.40;;;;;;3556223;40;20038;-72
2021/06/03 05:31:49;;;;;;;6.65;4.03;;;18.80;56.40;;;;;;3555043;40;20442;-72
2021/06/03 05:34:15;;;;;;;6.18;4.15;;;18.90;56.30;;;;;;3555346;40;20034;-70
2021/06/03 05:36:41;;;;;;;7.22;3.50;;;18.90;57.20;;;;;;3555256;40;20022;-70
2021/06/03 05:39:08;;;;;;;5.57;3.83;;;18.90;56.90;;;;;;3558089;40;20056;-72
2021/06/03 05:41:36;;;;;;;4.50;3.70;;;19.00;58.40;;;;;;3559400;40;20788;-72
2021/06/03 05:44:03;;;;;;;5.97;3.60;;;19.10;55.30;;;;;;3552474;40;20026;-72
2021/06/03 05:46:29;;;;;;;5.80;3.63;;;19.30;55.10;;;;;;3557048;40;20402;-72
2021/06/03 05:48:55;;;;;;;6.35;3.83;;;19.40;54.60;;;;;;3555698;40;20034;-72
2021/06/03 05:51:20;;;;;;;4.38;3.55;;;19.50;53.90;;;;;;3553543;40;20041;-72
2021/06/03 05:53:46;;;;;;;4.75;3.42;;;19.50;55.00;;;;;;3556133;40;20061;-71
2021/06/03 05:56:12;;;;;;;5.28;3.15;;;19.60;55.10;;;;;;3563936;40;20028;-72
2021/06/03 05:58:38;;;;;;;7.40;3.78;;;19.70;54.90;;;;;;3558088;40;20029;-72
2021/06/03 06:01:03;;;;;;;6.15;3.58;;;19.80;54.50;;;;;;3558786;40;20036;-73
2021/06/03 06:03:42;;;;;;;5.63;3.63;;;20.00;52.40;;;;;;3551903;40;20104;-72
2021/06/03 06:08:34;;;;;;;3.85;3.35;;;20.60;51.80;;;;;;3554526;40;20042;-72
2021/06/03 06:11:00;;;;;;;7.13;3.60;;;20.80;51.90;;;;;;3560688;40;20026;-72
2021/06/03 06:13:25;;;;;;;6.00;3.85;;;21.10;51.80;;;;;;3556886;40;20061;-72
2021/06/03 06:15:51;;;;;;;7.40;3.78;;;21.20;50.50;;;;;;3557395;40;20053;-73
2021/06/03 06:18:17;;;;;;;5.93;3.30;;;21.40;50.10;;;;;;3549876;40;20030;-72
2021/06/03 06:20:43;;;;;;;4.10;3.70;;;21.70;49.40;;;;;;3549215;40;20033;-72
2021/06/03 06:23:08;;;;;;;7.45;3.78;;;21.70;49.00;;;;;;3553544;40;20699;-73
2021/06/03 06:25:35;;;;;;;4.13;3.38;;;21.60;50.20;;;;;;3552173;40;20085;-70
2021/06/03 06:28:01;;;;;;;4.53;3.25;;;21.40;49.90;;;;;;3553676;40;20454;-70
2021/06/03 06:30:27;;;;;;;6.40;3.67;;;21.30;50.70;;;;;;3554892;40;20030;-71
2021/06/03 06:32:54;;;;;;;6.47;3.67;;;21.30;50.20;;;;;;3555752;40;20073;-70
2021/06/03 06:35:20;;;;;;;4.18;3.28;;;21.30;50.90;;;;;;3555838;40;20034;-71
2021/06/03 06:37:45;;;;;;;7.30;3.65;;;21.30;50.50;;;;;;3549304;40;20097;-71
2021/06/03 06:40:11;;;;;;;3.58;2.92;;;21.30;50.60;;;;;;3550184;40;20022;-71
2021/06/03 06:42:37;;;;;;;6.00;3.60;;;21.40;50.30;;;;;;3552641;40;20041;-69
2021/06/03 06:45:07;;;;;;;4.40;3.38;;;21.40;50.10;;;;;;3557440;40;20037;-70
2021/06/03 06:47:35;;;;;;;6.13;3.42;;;21.40;49.10;;;;;;3552110;40;20027;-69
2021/06/03 06:50:03;;;;;;;5.97;3.50;;;21.40;49.40;;;;;;3551602;40;20769;-70
2021/06/03 06:52:29;;;;;;;3.45;3.15;;;21.40;49.20;;;;;;3555440;40;20029;-69
2021/06/03 06:54:55;;;;;;;4.22;3.35;;;21.50;49.80;;;;;;3557708;40;20044;-69
2021/06/03 06:57:20;;;;;;;7.25;4.35;;;21.60;49.30;;;;;;3557792;40;20058;-69
2021/06/03 06:59:46;;;;;;;4.82;3.30;;;21.70;49.40;;;;;;3553964;40;20037;-75
2021/06/03 07:02:13;;;;;;;5.32;3.40;;;21.70;48.30;;;;;;3554321;40;20162;-72
2021/06/03 07:04:38;;;;;;;9.23;3.35;;;21.80;48.00;;;;;;3553803;40;20919;-72
2021/06/03 07:07:04;;;;;;;5.65;3.28;;;21.90;47.80;;;;;;3553469;40;20050;-72
2021/06/03 07:09:30;;;;;;;5.28;3.40;;;21.90;47.20;;;;;;3556586;40;20127;-72
2021/06/03 07:11:55;;;;;;;7.25;3.47;;;22.00;47.00;;;;;;3548158;40;20720;-72
2021/06/03 07:14:21;;;;;;;5.25;3.50;;;22.10;47.80;;;;;;3548815;40;20234;-72
2021/06/03 07:16:47;;;;;;;8.18;3.40;;;22.20;47.80;;;;;;3547306;40;20045;-72
2021/06/03 07:19:12;;;;;;;3.83;3.10;;;22.30;47.20;;;;;;3552868;40;20119;-72
2021/06/03 07:21:38;;;;;;;7.55;3.53;;;22.30;46.70;;;;;;3554726;40;20115;-73
2021/06/03 07:24:05;;;;;;;5.35;3.25;;;22.40;46.90;;;;;;3553236;40;20386;-74
2021/06/03 07:26:31;;;;;;;7.70;3.70;;;22.50;47.10;;;;;;3551571;40;20052;-73
2021/06/03 07:28:56;;;;;;;5.97;3.40;;;22.60;46.40;;;;;;3551390;40;20038;-73
2021/06/03 07:31:22;;;;;;;8.27;3.90;;;22.60;46.20;;;;;;3556354;40;20037;-73
2021/06/03 07:33:48;;;;;;;5.15;3.17;;;22.70;46.10;;;;;;3551163;40;20128;-76
2021/06/03 07:36:14;;;;;;;5.20;3.50;;;22.80;46.90;;;;;;3564498;40;20094;-67
2021/06/03 07:38:40;;;;;;;3.80;2.75;;;22.90;45.90;;;;;;3554532;40;20701;-67
2021/06/03 07:41:08;;;;;;;8.90;3.90;;;22.90;45.60;;;;;;3554614;40;20018;-67
2021/06/03 07:43:34;;;;;;;4.00;3.05;;;23.00;46.00;;;;;;3553238;40;20029;-67
2021/06/03 07:46:00;;;;;;;4.82;3.50;;;23.10;45.00;;;;;;3551755;40;20033;-67
2021/06/03 07:48:25;;;;;;;4.88;2.95;;;23.20;44.50;;;;;;3552721;40;20026;-67
2021/06/03 07:50:51;;;;;;;7.75;2.88;;;23.20;44.60;;;;;;3549579;40;20026;-63
2021/06/03 07:53:17;;;;;;;5.25;3.00;;;23.40;44.10;;;;;;3550208;40;20054;-63
2021/06/03 07:55:43;;;;;;;3.85;3.08;;;23.30;43.30;;;;;;3555178;40;20338;-64
2021/06/03 07:58:11;;;;;;;7.72;3.00;;;23.40;43.50;;;;;;3555326;40;20077;-63
2021/06/03 08:00:40;;;;;;;5.88;2.97;;;23.50;43.60;;;;;;3556844;40;20091;-67
2021/06/03 08:03:06;;;;;;;5.20;3.20;;;23.60;43.50;;;;;;3557299;40;20030;-66
2021/06/03 08:05:32;;;;;;;5.50;3.28;;;23.60;42.80;;;;;;3558527;40;20045;-69
2021/06/03 08:07:58;;;;;;;5.63;2.88;;;23.70;44.00;;;;;;3557710;40;20044;-68
2021/06/03 08:10:27;;;;;;;3.63;2.63;;;23.80;43.00;;;;;;3556015;40;20038;-68
2021/06/03 08:12:55;;;;;;;5.32;2.72;;;23.90;41.40;;;;;;3560060;40;20728;-68
2021/06/03 08:15:22;;;;;;;4.65;2.83;;;24.00;41.30;;;;;;3558718;40;20026;-68
2021/06/03 08:17:48;;;;;;;5.63;2.92;;;24.10;40.80;;;;;;3554363;40;20071;-68
2021/06/03 08:20:31;;;;;;;8.10;3.25;;;24.10;40.90;;;;;;3555950;40;20102;-69
2021/06/03 08:22:57;;;;;;;5.68;2.75;;;24.20;41.60;;;;;;3557411;40;20112;-68
2021/06/03 08:25:23;;;;;;;6.18;3.10;;;24.30;40.20;;;;;;3556062;40;20061;-68
2021/06/03 08:27:49;;;;;;;3.42;2.85;;;24.40;40.10;;;;;;3560946;40;20111;-68
2021/06/03 08:30:16;;;;;;;5.35;2.80;;;24.40;39.90;;;;;;3559675;40;20025;-69
2021/06/03 08:32:47;;;;;;;8.15;2.92;;;24.50;39.70;;;;;;3558799;40;20497;-68
2021/06/03 08:35:16;;;;;;;7.60;2.50;;;24.50;40.00;;;;;;3554688;40;20422;-68
2021/06/03 08:37:48;;;;;;;6.03;2.78;;;24.60;40.30;;;;;;3554870;40;20116;-68
2021/06/03 08:40:16;;;;;;;3.70;2.42;;;24.70;39.10;;;;;;3553704;40;20046;-69
2021/06/03 08:42:42;;;;;;;14.00;2.97;;;24.80;40.00;;;;;;3552743;40;20054;-68
2021/06/03 08:45:11;;;;;;;3.05;2.60;;;25.00;37.80;;;;;;3552291;40;20093;-68
2021/06/03 08:47:38;;;;;;;4.72;2.55;;;24.90;38.30;;;;;;3552154;40;20730;-69
2021/06/03 08:50:06;;;;;;;5.60;2.53;;;25.00;38.00;;;;;;3553854;40;20049;-69
2021/06/03 08:52:32;;;;;;;7.75;2.65;;;25.10;38.00;;;;;;3554048;40;20052;-68
2021/06/03 08:54:59;;;;;;;7.38;2.40;;;25.10;37.60;;;;;;3557076;40;20030;-69
2021/06/03 08:57:25;;;;;;;3.83;2.30;;;25.10;37.20;;;;;;3556935;40;20026;-68
2021/06/03 08:59:51;;;;;;;2.83;2.50;;;25.20;37.90;;;;;;3563560;40;20649;-69
2021/06/03 09:02:18;;;;;;;3.83;2.55;;;25.30;36.70;;;;;;3560598;40;20033;-69
2021/06/03 09:04:44;;;;;;;5.50;2.97;;;25.40;37.30;;;;;;3559148;40;20058;-69
2021/06/03 09:07:29;;;;;;;5.68;2.20;;;25.40;36.80;;;;;;3553459;40;20115;-68
2021/06/03 09:09:55;;;;;;;12.10;2.70;;;25.50;36.80;;;;;;3552334;40;20033;-68
2021/06/03 09:12:21;;;;;;;5.45;2.75;;;25.60;37.20;;;;;;3554642;40;20115;-68
2021/06/03 09:15:06;;;;;;;5.78;2.65;;;25.60;36.70;;;;;;3554878;40;20523;-69
2021/06/03 09:17:48;;;;;;;6.05;2.45;;;25.60;37.60;;;;;;3556256;40;20120;-68
2021/06/03 09:20:14;;;;;;;3.90;2.35;;;25.70;36.80;;;;;;3558809;40;20033;-69
2021/06/03 09:22:41;;;;;;;4.63;2.60;;;25.80;36.10;;;;;;3559894;40;20070;-68
2021/06/03 09:25:39;;;;;;;4.22;2.47;;;25.80;36.70;;;;;;3558999;40;20041;-69
2021/06/03 09:28:19;;;;;;;8.55;2.53;;;25.90;35.70;;;;;;3558333;40;20801;-68
2021/06/03 09:30:59;;;;;;;5.05;2.20;;;26.00;37.10;;;;;;3555198;40;20636;-68
2021/06/03 09:33:42;;;;;;;7.18;2.30;;;26.10;35.60;;;;;;3553328;40;20829;-70
2021/06/03 09:36:11;;;;;;;4.45;2.70;;;25.90;35.00;;;;;;3559764;40;20721;-69
2021/06/03 09:38:56;;;;;;;6.28;2.63;;;26.00;35.90;;;;;;3551088;40;20053;-69
2021/06/03 09:41:23;;;;;;;3.78;2.65;;;26.10;36.00;;;;;;3548723;40;20092;-68
2021/06/03 09:44:08;;;;;;;7.72;2.35;;;26.10;35.10;;;;;;3550663;40;20410;-68
2021/06/03 09:46:39;;;;;;;3.88;2.50;;;26.10;35.50;;;;;;3556062;40;20131;-69
2021/06/03 09:49:06;;;;;;;4.45;2.30;;;26.10;36.50;;;;;;3552413;40;20030;-68
2021/06/03 09:51:37;;;;;;;4.75;2.70;;;26.00;35.60;;;;;;3553149;40;20116;-68
2021/06/03 09:54:09;;;;;;;6.10;2.38;;;26.10;36.30;;;;;;3555657;40;20065;-69
2021/06/03 09:56:40;;;;;;;3.58;2.40;;;26.20;36.30;;;;;;3561873;40;20609;-68
2021/06/03 09:59:09;;;;;;;3.33;2.40;;;26.20;35.30;;;;;;3550039;40;20030;-68
2021/06/03 10:01:44;;;;;;;6.97;2.55;;;26.30;36.80;;;;;;3550012;40;20034;-68
2021/06/03 10:04:11;;;;;;;4.07;2.72;;;26.40;36.00;;;;;;3551200;40;20155;-68
2021/06/03 10:07:18;;;;;;;6.60;2.40;;;26.40;35.10;;;;;;3552633;40;20037;-68
2021/06/03 10:09:55;;;;;;;9.70;2.47;;;26.60;35.70;;;;;;3545874;40;20029;-69
2021/06/03 10:12:24;;;;;;;3.75;2.72;;;26.70;35.10;;;;;;3538622;40;20034;-68
2021/06/03 10:14:55;;;;;;;5.93;2.30;;;26.80;35.50;;;;;;3547715;40;20606;-68
2021/06/03 10:17:42;;;;;;;5.28;2.70;;;26.80;35.00;;;;;;3549122;40;20033;-68
2021/06/03 10:20:14;;;;;;;8.02;2.50;;;26.80;35.30;;;;;;3547914;40;20502;-67
2021/06/03 10:22:43;;;;;;;7.45;2.13;;;26.80;35.80;;;;;;3549891;40;20040;-68
2021/06/03 10:25:10;;;;;;;5.00;2.28;;;26.90;34.20;;;;;;3552448;40;20033;-69
2021/06/03 10:27:37;;;;;;;6.07;2.80;;;26.90;34.50;;;;;;3561568;40;20709;-69
2021/06/03 10:30:11;;;;;;;5.38;2.35;;;26.90;34.10;;;;;;3552783;40;20026;-69
2021/06/03 10:32:39;;;;;;;4.53;2.47;;;26.80;34.70;;;;;;3552816;40;20038;-69
2021/06/03 10:35:07;;;;;;;4.70;2.45;;;26.80;34.80;;;;;;3558113;40;20108;-67
2021/06/03 10:37:33;;;;;;;7.32;2.55;;;26.80;34.50;;;;;;3553625;40;20030;-66
2021/06/03 10:40:00;;;;;;;6.68;2.55;;;26.90;34.40;;;;;;3554139;40;20026;-66
2021/06/03 10:42:25;;;;;;;3.95;2.65;;;26.90;34.90;;;;;;3555513;40;20422;-67
2021/06/03 10:44:51;;;;;;;5.57;2.15;;;26.90;34.60;;;;;;3553917;40;20088;-67
2021/06/03 10:47:18;;;;;;;5.60;2.28;;;27.00;34.30;;;;;;3553429;40;20068;-66
2021/06/03 10:49:44;;;;;;;2.83;2.22;;;26.90;35.50;;;;;;3556642;40;20558;-64
2021/06/03 10:52:12;;;;;;;5.35;2.67;;;27.00;34.30;;;;;;3556088;40;20037;-64
2021/06/03 10:54:41;;;;;;;5.25;2.30;;;27.20;34.60;;;;;;3558909;40;20409;-67
2021/06/03 10:57:08;;;;;;;4.97;2.05;;;27.30;34.00;;;;;;3558762;40;20041;-65
2021/06/03 10:59:36;;;;;;;4.32;2.00;;;27.30;34.60;;;;;;3550256;40;20584;-64
2021/06/03 11:02:04;;;;;;;3.78;2.30;;;27.40;34.20;;;;;;3551632;40;20049;-66
2021/06/03 11:04:32;;;;;;;5.05;2.40;;;27.30;33.70;;;;;;3553174;40;20049;-65
2021/06/03 11:06:58;;;;;;;3.70;2.35;;;27.30;34.10;;;;;;3556011;40;20595;-67
2021/06/03 11:09:27;;;;;;;4.47;2.25;;;27.30;34.70;;;;;;3557012;40;20601;-63
2021/06/03 11:12:15;;;;;;;4.47;2.30;;;27.30;34.10;;;;;;3557866;40;20033;-64
2021/06/03 11:14:59;;;;;;;5.28;2.40;;;27.10;34.00;;;;;;3559211;40;20387;-64
2021/06/03 11:17:48;;;;;;;4.78;2.00;;;27.00;33.70;;;;;;3556917;40;20033;-64
2021/06/03 11:20:14;;;;;;;4.00;2.40;;;26.80;34.50;;;;;;3560251;40;20030;-65
2021/06/03 11:22:39;;;;;;;3.20;2.33;;;26.80;33.80;;;;;;3553521;40;20030;-64
2021/06/03 11:25:06;;;;;;;4.72;2.40;;;26.80;34.30;;;;;;3555179;40;20026;-64
2021/06/03 11:27:40;;;;;;;4.88;2.45;;;26.90;34.30;;;;;;3548136;40;20022;-65
2021/06/03 11:30:11;;;;;;;2.85;2.05;;;26.90;34.10;;;;;;3549511;40;20726;-65
2021/06/03 11:32:42;;;;;;;3.90;2.17;;;27.00;34.40;;;;;;3562025;40;20041;-65
2021/06/03 11:35:13;;;;;;;3.22;2.22;;;27.10;33.50;;;;;;3548798;40;20332;-65
2021/06/03 11:37:43;;;;;;;3.25;2.45;;;27.20;34.10;;;;;;3556324;40;20041;-66
2021/06/03 11:40:19;;;;;;;3.53;2.10;;;27.30;33.90;;;;;;3554323;40;20543;-65
2021/06/03 11:43:05;;;;;;;6.55;2.20;;;27.20;34.10;;;;;;3553043;40;20128;-65
2021/06/03 11:45:43;;;;;;;5.13;2.38;;;27.00;33.00;;;;;;3554129;40;20076;-65
2021/06/03 11:48:10;;;;;;;3.60;2.53;;;27.10;34.50;;;;;;3557184;40;20026;-66
2021/06/03 11:50:39;;;;;;;3.40;2.30;;;27.00;33.10;;;;;;3549338;40;20030;-65
2021/06/03 11:53:11;;;;;;;2.58;1.85;;;27.00;32.90;;;;;;3553756;40;20618;-65
2021/06/03 11:55:52;;;;;;;3.33;2.45;;;26.90;34.20;;;;;;3563871;40;20073;-65
2021/06/03 11:58:27;;;;;;;10.43;2.60;;;27.00;34.40;;;;;;3552879;40;20751;-65
2021/06/03 12:01:06;;;;;;;5.18;2.30;;;27.30;34.70;;;;;;3554883;40;20040;-65
2021/06/03 12:03:39;;;;;;;7.18;2.15;;;27.40;33.80;;;;;;3551622;40;20411;-65
2021/06/03 12:06:10;;;;;;;3.75;2.15;;;27.60;33.70;;;;;;3551196;40;20443;-65
2021/06/03 12:08:51;;;;;;;3.70;2.08;;;27.90;33.10;;;;;;3553761;40;20403;-65
2021/06/03 12:11:36;;;;;;;2.75;2.13;;;28.00;31.70;;;;;;3548739;40;20112;-65
2021/06/03 12:14:15;;;;;;;3.65;2.03;;;27.90;32.10;;;;;;3552691;40;20040;-65
2021/06/03 12:16:49;;;;;;;5.82;1.90;;;27.90;32.30;;;;;;3553284;40;20090;-65
2021/06/03 12:19:16;;;;;;;3.05;1.77;;;28.00;32.80;;;;;;3552660;40;20026;-65
2021/06/03 12:21:46;;;;;;;9.80;4.15;;;28.20;31.70;;;;;;3555710;40;20490;-66
2021/06/03 12:24:12;;;;;;;3.80;2.00;;;28.30;31.50;;;;;;3556897;40;20069;-66
2021/06/03 12:26:40;;;;;;;2.42;2.22;;;28.30;31.10;;;;;;3558096;40;20044;-66
2021/06/03 12:29:21;;;;;;;2.55;2.35;;;28.40;31.90;;;;;;3558067;40;20041;-66
2021/06/03 12:31:48;;;;;;;5.65;2.50;;;28.30;32.10;;;;;;3555385;40;20064;-66
2021/06/03 12:34:22;;;;;;;3.17;2.30;;;28.30;31.80;;;;;;3555108;40;20396;-66
2021/06/03 12:36:49;;;;;;;3.25;2.72;;;28.20;32.30;;;;;;3551187;40;20130;-66
2021/06/03 12:39:15;;;;;;;5.03;2.33;;;28.20;32.00;;;;;;3554728;40;20089;-66
2021/06/03 12:41:42;;;;;;;4.65;2.85;;;28.10;31.80;;;;;;3555852;40;20028;-66
2021/06/03 12:44:20;;;;;;;2.33;2.00;;;28.00;31.90;;;;;;3549573;40;20040;-65
2021/06/03 12:46:53;;;;;;;4.55;2.92;;;27.90;32.20;;;;;;3566426;40;20025;-65
2021/06/03 12:49:23;;;;;;;2.92;2.30;;;27.80;33.00;;;;;;3553964;40;20029;-65
2021/06/03 12:52:07;;;;;;;2.88;2.22;;;27.80;32.60;;;;;;3553641;40;20613;-65
2021/06/03 12:54:35;;;;;;;6.13;2.17;;;27.70;32.20;;;;;;3554030;40;20276;-65
2021/06/03 12:57:23;;;;;;;3.47;2.22;;;27.70;31.50;;;;;;3554869;40;20398;-65
2021/06/03 12:59:53;;;;;;;3.67;2.38;;;27.60;32.50;;;;;;3552027;40;20824;-66